createdAt,value
2023-03-01T00:02:00.267Z,102632.31
2023-03-01T00:04:30.514Z,102655.84
2023-03-01T00:06:58.825Z,102625.88
2023-03-01T00:09:28.801Z,102648.44
2023-03-01T00:11:56.654Z,102653.41
2023-03-01T00:14:24.819Z,102651.09
2023-03-01T00:16:55.803Z,102645.78
2023-03-01T00:19:25.896Z,102634.88
2023-03-01T00:21:53.627Z,102646.88
2023-03-01T00:24:23.555Z,102649.28
2023-03-01T00:26:58.157Z,102629.84
2023-03-01T00:29:28.197Z,102662.22
2023-03-01T00:31:57.303Z,102664.63
2023-03-01T00:34:26.927Z,102620.56
2023-03-01T00:37:02.745Z,102651.44
2023-03-01T00:39:32.397Z,102611.00
2023-03-01T00:42:02.455Z,102656.50
2023-03-01T00:44:30.242Z,102634.66
2023-03-01T00:47:01.185Z,102595.13
2023-03-01T00:49:31.289Z,102655.53
2023-03-01T00:51:59.073Z,102649.88
2023-03-01T00:54:28.817Z,102658.25
2023-03-01T00:57:00.907Z,102640.13
2023-03-01T00:59:28.627Z,102647.13
2023-03-01T01:01:56.425Z,102651.06
2023-03-01T01:04:29.266Z,102649.28
2023-03-01T01:06:57.044Z,102644.72
2023-03-01T01:09:24.752Z,102591.47
2023-03-01T01:11:56.807Z,102621.84
2023-03-01T01:14:24.634Z,102638.16
2023-03-01T01:16:52.356Z,102641.97
2023-03-01T01:19:25.184Z,102639.09
2023-03-01T01:21:54.754Z,102625.16
2023-03-01T01:24:22.531Z,102640.81
2023-03-01T01:26:54.372Z,102639.78
2023-03-01T01:29:22.157Z,102627.53
2023-03-01T01:31:50.285Z,102590.13
2023-03-01T01:34:24.124Z,102637.06
2023-03-01T01:36:54.428Z,102552.22
2023-03-01T01:39:27.175Z,102595.81
2023-03-01T01:41:54.882Z,102621.66
2023-03-01T01:44:27.028Z,102626.47
2023-03-01T01:47:00.088Z,102623.50
2023-03-01T01:49:34.256Z,102620.88
2023-03-01T01:52:10.234Z,102625.41
2023-03-01T01:54:47.135Z,102627.38
2023-03-01T01:57:20.121Z,102627.72
2023-03-01T01:59:53.209Z,102624.81
2023-03-01T02:02:24.386Z,102628.09
2023-03-01T02:05:00.993Z,102625.06
2023-03-01T02:07:31.174Z,102620.25
2023-03-01T02:10:02.695Z,102606.56
2023-03-01T02:12:31.367Z,102627.41
2023-03-01T02:15:03.272Z,102614.63
2023-03-01T02:17:31.587Z,102610.06
2023-03-01T02:20:15.309Z,102611.59
2023-03-01T02:22:46.950Z,102615.97
2023-03-01T02:25:34.291Z,102612.81
2023-03-01T02:28:11.071Z,102612.94
2023-03-01T02:31:05.367Z,102612.34
2023-03-01T02:33:33.894Z,102607.28
2023-03-01T02:36:10.842Z,102604.19
2023-03-01T02:38:38.582Z,102566.47
2023-03-01T02:41:09.093Z,102567.16
2023-03-01T02:43:39.173Z,102609.72
2023-03-01T02:46:15.864Z,102594.63
2023-03-01T02:48:45.979Z,102579.75
2023-03-01T02:51:26.877Z,102600.25
2023-03-01T02:54:03.975Z,102556.75
2023-03-01T02:56:34.338Z,102582.59
2023-03-01T02:59:03.472Z,102589.94
2023-03-01T03:01:37.634Z,102600.00
2023-03-01T03:04:10.788Z,102541.84
2023-03-01T03:06:42.697Z,102591.44
2023-03-01T03:09:10.410Z,102587.25
2023-03-01T03:11:40.181Z,102593.31
2023-03-01T03:14:15.477Z,102588.22
2023-03-01T03:16:48.894Z,102538.09
2023-03-01T03:19:19.640Z,102598.47
2023-03-01T03:21:50.482Z,102537.91
2023-03-01T03:24:19.324Z,102555.94
2023-03-01T03:26:48.970Z,102608.19
2023-03-01T03:29:18.928Z,102604.63
2023-03-01T03:31:50.005Z,102589.69
2023-03-01T03:34:21.169Z,102590.88
2023-03-01T03:36:48.958Z,102582.91
2023-03-01T03:39:20.650Z,102589.41
2023-03-01T03:41:50.359Z,102578.88
2023-03-01T03:44:18.119Z,102590.59
2023-03-01T03:46:53.207Z,102587.41
2023-03-01T03:49:20.885Z,102569.75
2023-03-01T03:51:48.620Z,102586.69
2023-03-01T03:54:20.461Z,102577.84
2023-03-01T03:56:48.198Z,102497.19
2023-03-01T03:59:15.887Z,102572.75
2023-03-01T04:01:48.168Z,102515.66
2023-03-01T04:04:19.919Z,102573.44
2023-03-01T04:06:52.366Z,102568.25
2023-03-01T04:09:20.062Z,102572.66
2023-03-01T04:11:47.831Z,102571.00
2023-03-01T04:14:19.703Z,102569.81
2023-03-01T04:16:47.573Z,102577.09
2023-03-01T04:19:18.078Z,102552.22
2023-03-01T04:21:51.263Z,102579.31
2023-03-01T04:24:19.019Z,102520.41
2023-03-01T04:26:46.912Z,102569.09
2023-03-01T04:29:19.295Z,102581.13
2023-03-01T04:31:47.274Z,102581.97
2023-03-01T04:34:15.169Z,102588.22
2023-03-01T04:36:45.453Z,102572.31
2023-03-01T04:39:14.638Z,102570.94
2023-03-01T04:41:44.161Z,102560.84
2023-03-01T04:44:16.226Z,102563.75
2023-03-01T04:46:43.989Z,102569.31
2023-03-01T04:49:13.966Z,102563.97
2023-03-01T04:51:41.820Z,102565.84
2023-03-01T04:54:09.825Z,102563.72
2023-03-01T04:56:41.200Z,102563.13
2023-03-01T04:59:13.367Z,102560.09
2023-03-01T05:01:44.208Z,102554.31
2023-03-01T05:04:16.349Z,102561.34
2023-03-01T05:06:46.413Z,102560.75
2023-03-01T05:09:14.173Z,102561.81
2023-03-01T05:11:45.233Z,102560.97
2023-03-01T05:14:15.346Z,102563.72
2023-03-01T05:16:43.096Z,102561.63
2023-03-01T05:19:18.102Z,102555.28
2023-03-01T05:22:06.271Z,102550.09
2023-03-01T05:24:37.977Z,102559.97
2023-03-01T05:27:09.392Z,102490.59
2023-03-01T05:29:37.200Z,102554.75
2023-03-01T05:32:07.318Z,102555.53
2023-03-01T05:34:39.320Z,102542.31
2023-03-01T05:37:10.482Z,102556.84
2023-03-01T05:39:40.493Z,102553.81
2023-03-01T05:42:15.272Z,102554.72
2023-03-01T05:44:45.578Z,102558.03
2023-03-01T05:47:13.299Z,102558.28
2023-03-01T05:49:49.106Z,102555.59
2023-03-01T05:52:16.850Z,102519.66
2023-03-01T05:54:46.944Z,102565.34
2023-03-01T05:57:18.282Z,102566.06
2023-03-01T05:59:45.984Z,102567.00
2023-03-01T06:02:15.989Z,102537.66
2023-03-01T06:04:49.015Z,102519.88
2023-03-01T06:07:16.811Z,102508.94
2023-03-01T06:09:45.370Z,102488.25
2023-03-01T06:12:18.732Z,102550.75
2023-03-01T06:14:47.546Z,102551.59
2023-03-01T06:17:15.589Z,102552.09
2023-03-01T06:19:50.161Z,102546.53
2023-03-01T06:22:18.099Z,102545.41
2023-03-01T06:24:45.905Z,102543.69
2023-03-01T06:27:19.365Z,102551.16
2023-03-01T06:29:47.128Z,102498.13
2023-03-01T06:32:14.914Z,102545.09
2023-03-01T06:34:47.068Z,102550.00
2023-03-01T06:37:14.921Z,102554.00
2023-03-01T06:39:42.741Z,102519.00
2023-03-01T06:42:12.248Z,102551.88
2023-03-01T06:44:41.389Z,102567.28
2023-03-01T06:47:09.101Z,102562.28
2023-03-01T06:49:39.093Z,102557.53
2023-03-01T06:52:06.797Z,102546.84
2023-03-01T06:54:34.576Z,102558.59
2023-03-01T06:57:06.580Z,102567.31
2023-03-01T06:59:34.288Z,102557.56
2023-03-01T07:02:03.449Z,102531.78
2023-03-01T07:04:35.341Z,102543.81
2023-03-01T07:07:03.473Z,102508.56
2023-03-01T07:09:31.225Z,102490.81
2023-03-01T07:12:03.212Z,102554.13
2023-03-01T07:14:31.064Z,102557.19
2023-03-01T07:16:58.884Z,102558.16
2023-03-01T07:19:30.326Z,102562.59
2023-03-01T07:21:58.094Z,102554.97
2023-03-01T07:24:26.006Z,102538.34
2023-03-01T07:26:54.732Z,102544.69
2023-03-01T07:29:22.484Z,102522.56
2023-03-01T07:31:53.250Z,102496.00
2023-03-01T07:34:25.237Z,102540.75
2023-03-01T07:36:56.396Z,102517.25
2023-03-01T07:39:25.051Z,102511.31
2023-03-01T07:41:55.342Z,102542.56
2023-03-01T07:44:25.697Z,102532.41
2023-03-01T07:46:59.127Z,102556.00
2023-03-01T07:49:29.128Z,102487.97
2023-03-01T07:52:00.025Z,102548.63
2023-03-01T07:54:30.416Z,102547.72
2023-03-01T07:56:58.449Z,102550.59
2023-03-01T07:59:30.166Z,102539.69
2023-03-01T08:02:00.150Z,102543.03
2023-03-01T08:04:28.274Z,102516.78
2023-03-01T08:07:03.894Z,102535.06
2023-03-01T08:09:31.621Z,102477.63
2023-03-01T08:12:00.777Z,102542.03
2023-03-01T08:14:28.922Z,102537.84
2023-03-01T08:16:57.104Z,102540.53
2023-03-01T08:19:24.983Z,102541.59
2023-03-01T08:21:56.765Z,102536.50
2023-03-01T08:24:26.431Z,102542.56
2023-03-01T08:26:54.430Z,102497.91
2023-03-01T08:29:27.497Z,102536.75
2023-03-01T08:31:55.280Z,102506.03
2023-03-01T08:34:23.054Z,102500.00
2023-03-01T08:36:55.642Z,102524.03
2023-03-01T08:39:23.434Z,102540.44
2023-03-01T08:41:52.571Z,102544.06
2023-03-01T08:44:24.796Z,102499.38
2023-03-01T08:46:54.061Z,102500.50
2023-03-01T08:49:22.257Z,102491.19
2023-03-01T08:51:52.467Z,102527.31
2023-03-01T08:54:22.372Z,102495.75
2023-03-01T08:56:51.820Z,102524.94
2023-03-01T08:59:23.799Z,102519.88
2023-03-01T09:01:51.599Z,102524.25
2023-03-01T09:04:19.353Z,102520.88
2023-03-01T09:06:51.509Z,102520.19
2023-03-01T09:09:22.427Z,102466.22
2023-03-01T09:11:55.598Z,102504.94
2023-03-01T09:14:23.355Z,102509.31
2023-03-01T09:16:51.222Z,102505.06
2023-03-01T09:19:25.701Z,102494.84
2023-03-01T09:21:54.194Z,102494.03
2023-03-01T09:24:27.566Z,102499.16
2023-03-01T09:26:57.965Z,102503.47
2023-03-01T09:29:27.994Z,102496.69
2023-03-01T09:31:58.955Z,102487.34
2023-03-01T09:34:26.860Z,102484.81
2023-03-01T09:36:56.842Z,102478.03
2023-03-01T09:39:28.631Z,102470.41
2023-03-01T09:42:03.148Z,102476.38
2023-03-01T09:44:39.628Z,102467.00
2023-03-01T09:47:07.738Z,102451.59
2023-03-01T09:49:43.704Z,102423.28
2023-03-01T09:52:22.812Z,102435.28
2023-03-01T09:54:59.512Z,102428.44
2023-03-01T09:57:35.754Z,102449.91
2023-03-01T10:00:16.195Z,102452.50
2023-03-01T10:02:45.466Z,102460.25
2023-03-01T10:05:27.565Z,102447.41
2023-03-01T10:08:04.506Z,102449.09
2023-03-01T10:10:38.917Z,102445.63
2023-03-01T10:13:17.234Z,102449.91
2023-03-01T10:15:58.140Z,102443.09
2023-03-01T10:18:29.707Z,102447.38
2023-03-01T10:21:04.604Z,102446.53
2023-03-01T10:23:34.462Z,102438.88
2023-03-01T10:26:19.113Z,102432.00
2023-03-01T10:29:00.621Z,102436.28
2023-03-01T10:31:40.101Z,102419.16
2023-03-01T10:34:13.092Z,102433.72
2023-03-01T10:36:42.179Z,102410.59
2023-03-01T10:39:16.914Z,102426.88
2023-03-01T10:41:57.850Z,102413.16
2023-03-01T10:44:44.516Z,102424.28
2023-03-01T10:47:26.561Z,102426.03
2023-03-01T10:49:57.680Z,102423.44
2023-03-01T10:52:31.452Z,102413.97
2023-03-01T10:55:01.427Z,102426.00
2023-03-01T10:57:42.559Z,102417.38
2023-03-01T11:00:23.390Z,102421.63
2023-03-01T11:02:52.592Z,102417.38
2023-03-01T11:05:26.022Z,102377.13
2023-03-01T11:07:56.244Z,102411.28
2023-03-01T11:10:25.974Z,102377.88
2023-03-01T11:13:09.844Z,102419.03
2023-03-01T11:15:38.971Z,102411.31
2023-03-01T11:18:14.124Z,102410.47
2023-03-01T11:20:43.519Z,102408.69
2023-03-01T11:23:14.539Z,102383.00
2023-03-01T11:25:44.809Z,102376.09
2023-03-01T11:28:16.700Z,102404.38
2023-03-01T11:31:07.167Z,102405.22
2023-03-01T11:33:44.610Z,102398.38
2023-03-01T11:36:21.769Z,102357.31
2023-03-01T11:38:52.247Z,102399.19
2023-03-01T11:41:23.931Z,102377.78
2023-03-01T11:43:59.819Z,102398.31
2023-03-01T11:46:53.997Z,102399.03
2023-03-01T11:49:53.353Z,102390.41
2023-03-01T11:52:30.543Z,102379.16
2023-03-01T11:55:15.448Z,102353.66
2023-03-01T11:58:02.672Z,102325.44
2023-03-01T12:00:46.518Z,102375.84
2023-03-01T12:03:38.182Z,102368.09
2023-03-01T12:06:24.984Z,102356.09
2023-03-01T12:09:06.756Z,102356.91
2023-03-01T12:11:52.928Z,102320.91
2023-03-01T12:14:43.221Z,102349.88
2023-03-01T12:17:42.481Z,102342.94
2023-03-01T12:20:33.511Z,102340.38
2023-03-01T12:23:23.004Z,102336.81
2023-03-01T12:26:02.764Z,102303.84
2023-03-01T12:29:02.944Z,102331.88
2023-03-01T12:31:53.235Z,102317.69
2023-03-01T12:34:39.347Z,102286.25
2023-03-01T12:37:34.949Z,102321.25
2023-03-01T12:40:19.080Z,102322.91
2023-03-01T12:43:00.516Z,102312.38
2023-03-01T12:45:50.910Z,102308.81
2023-03-01T12:48:34.947Z,102307.44
2023-03-01T12:51:09.546Z,102302.22
2023-03-01T12:53:44.641Z,102300.69
2023-03-01T12:56:18.857Z,102301.31
2023-03-01T12:58:58.951Z,102298.00
2023-03-01T13:01:38.739Z,102294.72
2023-03-01T13:04:26.702Z,102296.66
2023-03-01T13:07:04.568Z,102289.13
2023-03-01T13:09:46.878Z,102293.34
2023-03-01T13:12:49.085Z,102289.38
2023-03-01T13:15:50.638Z,102279.53
2023-03-01T13:18:35.197Z,102248.31
2023-03-01T13:21:07.772Z,102295.63
2023-03-01T13:23:39.563Z,102286.88
2023-03-01T13:26:17.651Z,102294.50
2023-03-01T13:28:51.060Z,102258.94
2023-03-01T13:32:06.737Z,102291.56
2023-03-01T13:34:52.960Z,102295.00
2023-03-01T13:37:30.426Z,102283.88
2023-03-01T13:40:08.425Z,102270.81
2023-03-01T13:42:46.574Z,102273.28
2023-03-01T13:45:38.193Z,102260.00
2023-03-01T13:48:14.960Z,102249.59
2023-03-01T13:50:49.907Z,102270.00
2023-03-01T13:53:23.123Z,102269.25
2023-03-01T13:55:58.726Z,102271.69
2023-03-01T13:58:33.374Z,102259.78
2023-03-01T14:01:03.536Z,102252.56
2023-03-01T14:03:33.258Z,102256.63
2023-03-01T14:06:14.540Z,102252.41
2023-03-01T14:08:45.605Z,102242.16
2023-03-01T14:11:34.036Z,102250.06
2023-03-01T14:14:37.090Z,102242.34
2023-03-01T14:17:21.062Z,102244.06
2023-03-01T14:19:56.854Z,102240.03
2023-03-01T14:22:31.293Z,102257.19
2023-03-01T14:25:01.865Z,102257.44
2023-03-01T14:27:38.252Z,102251.34
2023-03-01T14:30:14.963Z,102220.66
2023-03-01T14:32:47.141Z,102215.63
2023-03-01T14:35:23.692Z,102236.13
2023-03-01T14:37:51.750Z,102207.13
2023-03-01T14:40:29.120Z,102240.31
2023-03-01T14:43:04.317Z,102239.44
2023-03-01T14:45:33.569Z,102228.34
2023-03-01T14:48:09.053Z,102241.28
2023-03-01T14:50:42.530Z,102237.91
2023-03-01T14:53:19.302Z,102233.63
2023-03-01T14:55:49.793Z,102230.19
2023-03-01T14:58:18.239Z,102232.81
2023-03-01T15:00:52.206Z,102219.19
2023-03-01T15:03:27.896Z,102228.50
2023-03-01T15:05:57.864Z,102231.13
2023-03-01T15:08:34.183Z,102220.25
2023-03-01T15:11:04.952Z,102220.34
2023-03-01T15:13:35.577Z,102225.56
2023-03-01T15:16:11.547Z,102230.50
2023-03-01T15:18:46.883Z,102224.44
2023-03-01T15:21:20.614Z,102222.66
2023-03-01T15:23:54.691Z,102222.75
2023-03-01T15:26:30.283Z,102229.69
2023-03-01T15:29:01.298Z,102205.78
2023-03-01T15:31:36.239Z,102215.34
2023-03-01T15:34:23.138Z,102237.47
2023-03-01T15:36:53.999Z,102234.13
2023-03-01T15:39:34.042Z,102236.13
2023-03-01T15:42:02.213Z,102235.91
2023-03-01T15:44:42.607Z,102236.00
2023-03-01T15:47:26.986Z,102232.47
2023-03-01T15:49:56.354Z,102229.03
2023-03-01T15:52:31.922Z,102231.66
2023-03-01T15:55:02.514Z,102237.78
2023-03-01T15:57:30.794Z,102233.47
2023-03-01T15:59:58.788Z,102241.19
2023-03-01T16:02:28.065Z,102201.91
2023-03-01T16:04:57.570Z,102233.47
2023-03-01T16:07:25.617Z,102232.69
2023-03-01T16:09:53.453Z,102229.31
2023-03-01T16:12:22.287Z,102233.66
2023-03-01T16:14:52.398Z,102199.34
2023-03-01T16:17:20.284Z,102240.41
2023-03-01T16:19:49.392Z,102243.09
2023-03-01T16:22:17.189Z,102239.53
2023-03-01T16:24:45.044Z,102232.78
2023-03-01T16:27:12.742Z,102226.03
2023-03-01T16:29:40.636Z,102223.50
2023-03-01T16:32:10.698Z,102233.69
2023-03-01T16:34:38.590Z,102233.72
2023-03-01T16:37:09.518Z,102232.88
2023-03-01T16:39:40.428Z,102226.00
2023-03-01T16:42:08.332Z,102231.09
2023-03-01T16:44:39.044Z,102212.25
2023-03-01T16:47:09.088Z,102235.47
2023-03-01T16:49:36.835Z,102235.56
2023-03-01T16:52:04.825Z,102229.53
2023-03-01T16:54:34.040Z,102237.09
2023-03-01T16:57:01.755Z,102233.59
2023-03-01T16:59:31.873Z,102240.56
2023-03-01T17:02:01.911Z,102231.09
2023-03-01T17:04:29.672Z,102234.56
2023-03-01T17:06:57.492Z,102231.09
2023-03-01T17:09:25.330Z,102228.59
2023-03-01T17:11:55.252Z,102235.59
2023-03-01T17:14:23.370Z,102233.13
2023-03-01T17:16:51.225Z,102245.19
2023-03-01T17:19:19.662Z,102239.13
2023-03-01T17:21:49.412Z,102238.28
2023-03-01T17:24:19.385Z,102238.44
2023-03-01T17:26:47.239Z,102241.91
2023-03-01T17:29:20.748Z,102246.88
2023-03-01T17:31:54.916Z,102253.72
2023-03-01T17:34:23.125Z,102251.25
2023-03-01T17:36:52.151Z,102241.00
2023-03-01T17:39:31.576Z,102256.34
2023-03-01T17:42:00.563Z,102260.69
2023-03-01T17:44:34.450Z,102258.91
2023-03-01T17:47:02.831Z,102256.38
2023-03-01T17:49:31.173Z,102264.97
2023-03-01T17:51:59.045Z,102258.97
2023-03-01T17:54:27.388Z,102267.56
2023-03-01T17:56:56.064Z,102259.81
2023-03-01T17:59:24.041Z,102262.41
2023-03-01T18:01:55.036Z,102264.13
2023-03-01T18:04:22.777Z,102270.13
2023-03-01T18:06:52.512Z,102256.44
2023-03-01T18:09:20.630Z,102260.69
2023-03-01T18:11:48.417Z,102265.84
2023-03-01T18:14:16.310Z,102254.69
2023-03-01T18:16:44.247Z,102237.50
2023-03-01T18:19:13.892Z,102263.25
2023-03-01T18:21:43.504Z,102259.75
2023-03-01T18:24:11.429Z,102266.56
2023-03-01T18:26:40.411Z,102267.47
2023-03-01T18:29:08.589Z,102263.28
2023-03-01T18:31:36.448Z,102272.63
2023-03-01T18:34:04.538Z,102253.72
2023-03-01T18:36:38.300Z,102253.81
2023-03-01T18:39:08.909Z,102266.63
2023-03-01T18:41:38.158Z,102276.88
2023-03-01T18:44:07.075Z,102258.13
2023-03-01T18:46:37.935Z,102240.16
2023-03-01T18:49:06.466Z,102270.91
2023-03-01T18:51:36.307Z,102271.00
2023-03-01T18:54:04.410Z,102271.75
2023-03-01T18:56:34.080Z,102263.19
2023-03-01T18:59:06.819Z,102263.19
2023-03-01T19:01:37.246Z,102214.50
2023-03-01T19:04:06.535Z,102270.06
2023-03-01T19:06:36.074Z,102256.34
2023-03-01T19:09:04.721Z,102241.00
2023-03-01T19:11:35.848Z,102223.06
2023-03-01T19:14:04.997Z,102223.81
2023-03-01T19:16:35.784Z,102260.63
2023-03-01T19:19:08.879Z,102215.28
2023-03-01T19:21:38.441Z,102256.25
2023-03-01T19:24:07.394Z,102237.56
2023-03-01T19:26:35.942Z,102270.81
2023-03-01T19:29:04.944Z,102263.97
2023-03-01T19:31:32.902Z,102252.03
2023-03-01T19:34:11.895Z,102259.69
2023-03-01T19:36:44.797Z,102264.91
2023-03-01T19:39:16.389Z,102263.13
2023-03-01T19:41:44.598Z,102216.22
2023-03-01T19:44:13.242Z,102232.44
2023-03-01T19:46:43.486Z,102265.66
2023-03-01T19:49:13.441Z,102260.50
2023-03-01T19:51:42.543Z,102261.38
2023-03-01T19:54:13.891Z,102263.91
2023-03-01T19:56:43.922Z,102265.69
2023-03-01T19:59:11.652Z,102263.13
2023-03-01T20:01:47.378Z,102263.97
2023-03-01T20:04:17.545Z,102267.44
2023-03-01T20:06:50.112Z,102281.19
2023-03-01T20:09:21.834Z,102252.03
2023-03-01T20:11:54.411Z,102267.44
2023-03-01T20:14:24.035Z,102279.44
2023-03-01T20:16:52.553Z,102269.22
2023-03-01T20:19:20.968Z,102271.78
2023-03-01T20:21:50.111Z,102283.78
2023-03-01T20:24:17.859Z,102287.19
2023-03-01T20:26:49.669Z,102276.94
2023-03-01T20:29:17.537Z,102278.66
2023-03-01T20:31:45.318Z,102254.75
2023-03-01T20:34:15.500Z,102247.84
2023-03-01T20:36:44.333Z,102270.06
2023-03-01T20:39:13.504Z,102275.25
2023-03-01T20:41:41.562Z,102265.84
2023-03-01T20:44:09.679Z,102266.72
2023-03-01T20:46:38.434Z,102235.91
2023-03-01T20:49:10.347Z,102271.84
2023-03-01T20:51:38.146Z,102275.28
2023-03-01T20:54:06.214Z,102260.72
2023-03-01T20:56:35.726Z,102260.72
2023-03-01T20:59:04.462Z,102283.03
2023-03-01T21:01:32.643Z,102278.75
2023-03-01T21:04:00.712Z,102277.00
2023-03-01T21:06:28.643Z,102285.56
2023-03-01T21:08:56.892Z,102245.44
2023-03-01T21:11:25.412Z,102241.13
2023-03-01T21:13:55.298Z,102277.00
2023-03-01T21:16:23.591Z,102265.91
2023-03-01T21:18:53.458Z,102269.34
2023-03-01T21:21:24.383Z,102265.91
2023-03-01T21:23:52.355Z,102263.41
2023-03-01T21:26:21.807Z,102262.53
2023-03-01T21:28:57.362Z,102261.66
2023-03-01T21:31:30.161Z,102259.09
2023-03-01T21:34:00.303Z,102260.81
2023-03-01T21:36:31.241Z,102271.94
2023-03-01T21:39:03.306Z,102240.28
2023-03-01T21:41:32.950Z,102263.34
2023-03-01T21:44:06.104Z,102265.94
2023-03-01T21:46:37.536Z,102237.72
2023-03-01T21:49:06.064Z,102268.41
2023-03-01T21:51:39.094Z,102277.69
2023-03-01T21:54:07.266Z,102274.25
2023-03-01T21:56:38.963Z,102256.28
2023-03-01T21:59:14.772Z,102281.84
2023-03-01T22:01:42.933Z,102258.06
2023-03-01T22:04:11.324Z,102286.19
2023-03-01T22:06:41.153Z,102290.63
2023-03-01T22:09:13.142Z,102264.13
2023-03-01T22:11:47.405Z,102287.28
2023-03-01T22:14:17.099Z,102290.66
2023-03-01T22:16:47.836Z,102290.72
2023-03-01T22:19:19.125Z,102281.31
2023-03-01T22:21:50.963Z,102300.91
2023-03-01T22:24:19.381Z,102307.81
2023-03-01T22:26:51.350Z,102298.38
2023-03-01T22:29:29.574Z,102274.47
2023-03-01T22:32:00.565Z,102313.81
2023-03-01T22:34:30.717Z,102305.22
2023-03-01T22:37:00.662Z,102317.19
2023-03-01T22:39:30.476Z,102266.75
2023-03-01T22:42:01.245Z,102307.78
2023-03-01T22:44:34.354Z,102268.44
2023-03-01T22:47:02.126Z,102308.66
2023-03-01T22:49:29.830Z,102300.06
2023-03-01T22:52:03.980Z,102310.38
2023-03-01T22:54:32.204Z,102304.31
2023-03-01T22:57:00.017Z,102304.38
2023-03-01T22:59:33.275Z,102292.41
2023-03-01T23:02:01.103Z,102314.69
2023-03-01T23:04:28.878Z,102302.72
2023-03-01T23:07:00.676Z,102306.97
2023-03-01T23:09:33.358Z,102310.38
2023-03-01T23:12:08.559Z,102312.00
2023-03-01T23:14:38.195Z,102306.00
2023-03-01T23:17:12.188Z,102314.47
2023-03-01T23:19:39.945Z,102313.63
2023-03-01T23:22:18.054Z,102304.22
2023-03-01T23:24:46.062Z,102310.94
2023-03-01T23:27:15.663Z,102317.03
2023-03-01T23:29:48.773Z,102270.69
2023-03-01T23:32:16.556Z,102300.56
2023-03-01T23:34:45.770Z,102324.34
2023-03-01T23:37:15.617Z,102326.09
2023-03-01T23:39:43.402Z,102303.00
2023-03-01T23:42:11.152Z,102317.78
2023-03-01T23:44:43.422Z,102321.25
2023-03-01T23:47:12.544Z,102315.88
2023-03-01T23:49:40.487Z,102317.47
2023-03-01T23:52:15.261Z,102322.63
2023-03-01T23:54:43.044Z,102314.78
2023-03-01T23:57:13.038Z,102311.63
2023-03-01T23:59:42.988Z,102279.78
